Bei Facebook empfehlenBei Twitter postenGoogle plusPinterest

Das Wetter im Erzgebirge am 08.11.2015

Wetter und Klima am 08.11.2015 Holzhau im Erzgebirge (630m ü.NN)
Letzte gemessene Temperatur und Uhrzeit der Messung23:59:00 Uhr6.00 °C
Temperatur (Maximum / Höchstwert) und Uhrzeit der Messung02:44:00 Uhr14.40 °C
Temperatur (Minimum / Tiefstwert) und Uhrzeit der Messung20:14:004.50 °C
Errechneter Absolutwert der Temperaturschwankungen zwischen Tmin und Tmax des Tages9.90 K
Errechnete Tagesmitteltemperatur10.46250 °C
Gesamt - Niederschlag des Tages (in flüssiger Form)0.00 Liter / m²
Luftdruck (Maximum / Höchstwert) und Zeitpunkt der Messung12:14:00 Uhr1025.80 hPa
Luftdruck (Minimum / Tiefstwert) und Zeitpunkt der Messung23:59:00 Uhr1019.80 hPa
Errechneter Absolutwert der Luftdruckschwankungen des Tages6.00 hPa
Höchste gemessene Windgeschwindigkeit und Uhrzeit der Messung18:59:00 Uhr183.60 km/h
Errechnete Windhäufigkeit in Relation zu den Messwerten des Tages44.79167 %
Niedrigste Windkühle (Windchill) und Zeitpunkt der Messung18:59:00 Uhr-4.50 °C
Taupunkt (Maximum / Höchstwert) und Uhrzeit der Messung02:44:00 Uhr13.60 °C
Taupunkt (Minimum / Tiefstwert) und Uhrzeit der Messung20:14:003.20 °C
Anzahl der automatisch eingelesenen Messwerte 96

Detaillierte Wetter- und Klima- Messwerte für den 08.11.2015 in Holzhau im Erzgebirge (630m ü.NN)
ZeitTemperaturLuftdruckRel. LuftfeuchteWindWindrichtungWindchillTaupunktNiederschlag l/m²
23:59:006.00 °C1019.80 hPa93.00 %5.00 °C 
23:44:005.60 °C1020.30 hPa93.00 %4.60 °C 
23:29:005.60 °C1020.30 hPa93.00 %4.60 °C 
23:14:005.90 °C1020.20 hPa93.00 %4.90 °C 
22:59:005.90 °C1020.30 hPa93.00 %4.90 °C 
22:44:005.80 °C1020.40 hPa93.00 %4.80 °C 
22:29:005.70 °C1021.00 hPa93.00 %1.80 km/hSO5.70 °C4.70 °C 
22:14:005.90 °C1021.20 hPa93.00 %4.90 °C 
21:59:005.90 °C1021.30 hPa93.00 %4.90 °C 
21:44:006.10 °C1021.40 hPa92.00 %4.90 °C 
21:29:005.90 °C1021.80 hPa92.00 %4.70 °C 
21:14:006.10 °C1022.30 hPa92.00 %4.90 °C 
20:59:006.10 °C1022.50 hPa92.00 %4.90 °C 
20:44:005.90 °C1022.60 hPa92.00 %1.80 km/hSO5.90 °C4.70 °C 
20:29:005.20 °C1022.80 hPa92.00 %2.52 km/hOSO5.20 °C4.00 °C 
20:14:004.50 °C1023.00 hPa91.00 %3.20 °C 
19:59:004.50 °C1023.10 hPa91.00 %3.20 °C 
19:44:004.80 °C1023.20 hPa90.00 %3.30 °C 
19:29:004.90 °C1023.50 hPa90.00 %3.40 °C 
19:14:005.20 °C1023.80 hPa90.00 %3.70 °C 
18:59:005.60 °C1024.00 hPa90.00 %183.60 km/hSO-4.50 °C4.10 °C 
18:44:005.90 °C1023.80 hPa90.00 %4.40 °C 
18:29:005.50 °C1024.00 hPa89.00 %3.96 km/hSO5.50 °C3.80 °C 
18:14:005.90 °C1024.10 hPa89.00 %4.20 °C 
17:59:006.00 °C1024.20 hPa88.00 %4.20 °C 
17:44:005.80 °C1024.20 hPa88.00 %5.04 km/hSO5.00 °C4.00 °C 
17:29:005.80 °C1024.70 hPa87.00 %2.88 km/hSO5.80 °C3.80 °C 
17:14:006.30 °C1024.80 hPa86.00 %4.10 °C 
16:59:006.80 °C1024.80 hPa85.00 %4.50 °C 
16:44:007.20 °C1024.90 hPa84.00 %4.70 °C 
16:29:007.60 °C1025.10 hPa83.00 %4.90 °C 
16:14:008.30 °C1025.00 hPa82.00 %5.40 °C 
15:59:009.30 °C1025.40 hPa80.00 %6.00 °C 
15:44:0010.50 °C1025.20 hPa79.00 %7.00 °C 
15:29:0011.80 °C1025.10 hPa77.00 %7.90 °C 
15:14:0013.00 °C1025.20 hPa76.00 %8.90 °C 
14:59:0013.60 °C1025.20 hPa76.00 %9.50 °C 
14:44:0013.40 °C1025.30 hPa76.00 %9.30 °C 
14:29:0013.50 °C1025.30 hPa76.00 %5.40 km/hWNW13.60 °C9.40 °C 
14:14:0013.50 °C1025.20 hPa76.00 %5.04 km/hSW13.70 °C9.40 °C 
13:59:0013.70 °C1025.50 hPa77.00 %9.70 °C 
13:44:0013.30 °C1025.30 hPa77.00 %9.40 °C 
13:29:0013.40 °C1025.60 hPa76.00 %9.30 °C 
13:14:0013.40 °C1025.50 hPa76.00 %5.76 km/hSW13.40 °C9.30 °C 
12:59:0013.30 °C1025.50 hPa77.00 %9.40 °C 
12:44:0013.60 °C1025.50 hPa78.00 %7.56 km/hWNW13.30 °C9.80 °C 
12:29:0012.90 °C1025.50 hPa79.00 %9.40 °C 
12:14:0012.90 °C1025.80 hPa78.00 %9.20 °C 
11:59:0013.40 °C1025.60 hPa78.00 %5.40 km/hWNW13.50 °C9.60 °C 
11:44:0013.50 °C1025.40 hPa78.00 %10.80 km/hWSW12.70 °C9.70 °C 
11:29:0013.40 °C1025.20 hPa79.00 %9.00 km/hWNW12.80 °C9.80 °C 
11:14:0013.30 °C1025.30 hPa81.00 %11.88 km/hWNW12.30 °C10.10 °C 
10:59:0013.20 °C1025.30 hPa83.00 %5.76 km/hNW13.20 °C10.40 °C 
10:44:0012.80 °C1025.50 hPa86.00 %10.50 °C 
10:29:0012.50 °C1025.30 hPa86.00 %2.16 km/hNNW12.50 °C10.20 °C 
10:14:0012.60 °C1025.40 hPa87.00 %3.96 km/hW12.60 °C10.50 °C 
09:59:0012.20 °C1025.10 hPa89.00 %5.40 km/hWSW12.10 °C10.40 °C 
09:44:0011.60 °C1025.00 hPa89.00 %9.90 °C 
09:29:0011.40 °C1024.90 hPa90.00 %9.80 °C 
09:14:0011.30 °C1024.90 hPa91.00 %4.32 km/hWNW11.30 °C9.90 °C 
08:59:0011.40 °C1024.70 hPa91.00 %10.00 °C 
08:44:0011.40 °C1024.50 hPa92.00 %10.10 °C 
08:29:0011.60 °C1024.30 hPa92.00 %5.40 km/hNW11.50 °C10.30 °C 
08:14:0011.80 °C1024.10 hPa93.00 %10.70 °C 
07:59:0011.90 °C1024.00 hPa93.00 %2.52 km/hN11.90 °C10.80 °C 
07:44:0011.80 °C1023.70 hPa93.00 %11.88 km/hWSW10.50 °C10.70 °C 
07:29:0011.80 °C1023.50 hPa93.00 %10.70 °C 
07:14:0011.80 °C1023.20 hPa92.00 %10.50 °C 
06:59:0011.90 °C1022.80 hPa92.00 %10.60 °C 
06:44:0012.10 °C1022.50 hPa92.00 %2.52 km/hNW12.10 °C10.80 °C 
06:29:0012.10 °C1022.30 hPa93.00 %7.20 km/hW11.60 °C11.00 °C 
06:14:0012.10 °C1022.00 hPa93.00 %11.00 °C 
05:59:0012.30 °C1021.90 hPa92.00 %7.92 km/hNW11.70 °C11.00 °C 
05:44:0012.80 °C1021.60 hPa93.00 %8.28 km/hNW12.20 °C11.70 °C 
05:29:0013.10 °C1021.80 hPa93.00 %12.00 °C 
05:14:0013.10 °C1021.40 hPa93.00 %13.32 km/hWNW11.90 °C12.00 °C 
04:59:0013.30 °C1021.40 hPa93.00 %10.08 km/hNW12.60 °C12.20 °C 
04:44:0013.30 °C1021.30 hPa94.00 %4.32 km/hWNW13.30 °C12.40 °C 
04:29:0013.50 °C1021.10 hPa94.00 %5.40 km/hWSW13.60 °C12.60 °C 
04:14:0013.60 °C1020.80 hPa94.00 %12.70 °C 
03:59:0013.60 °C1020.70 hPa94.00 %4.68 km/hSSW13.60 °C12.70 °C 
03:44:0013.80 °C1020.90 hPa94.00 %12.90 °C 
03:29:0014.10 °C1020.50 hPa94.00 %2.16 km/hWSW14.10 °C13.10 °C 
03:14:0014.20 °C1020.60 hPa94.00 %6.84 km/hWNW14.10 °C13.20 °C 
02:59:0014.20 °C1020.80 hPa95.00 %5.04 km/hW14.50 °C13.40 °C 
02:44:0014.40 °C1021.00 hPa95.00 %7.92 km/hSW14.20 °C13.60 °C 
02:29:0014.10 °C1020.90 hPa96.00 %6.84 km/hW14.00 °C13.50 °C 
02:14:0013.90 °C1020.70 hPa96.00 %3.24 km/hWSW13.90 °C13.30 °C 
01:59:0013.60 °C1020.50 hPa96.00 %3.24 km/hSSW13.60 °C13.00 °C 
01:44:0013.40 °C1020.60 hPa96.00 %12.80 °C 
01:29:0013.20 °C1020.50 hPa96.00 %3.96 km/hSW13.20 °C12.60 °C 
01:14:0012.90 °C1020.60 hPa96.00 %9.00 km/hWSW12.20 °C12.30 °C 
00:59:0012.60 °C1020.70 hPa96.00 %2.16 km/hSW12.60 °C12.00 °C 
00:44:0012.20 °C1020.50 hPa96.00 %2.16 km/hWSW12.20 °C11.60 °C 
00:29:0011.60 °C1020.50 hPa96.00 %11.00 °C 
00:14:0011.40 °C1020.50 hPa96.00 %10.80 °C 

Permanenter Link zu dieser Seite: Wetter im Erzgebirge am 08.11.2015
Performance-Info: Die Erstellung der Seite / Statistik(en) / Tabelle(n) erforderte 5 Datenbankserver-Abfrage(n) und dauerte 97 Millisekunden. (Dieser Messwert ist von der Gesamt-Auslastung des Servers abhängig.)
Erzgebirge - Wetter | Erzgebirge - Wetter (Mobilgeräte) | Komplette Klimadatenbank